sensor_id;sensor_type;location;lat;lon;timestamp;temperature;humidity
33105;DHT22;19476;51.448;6.674;2023-08-20T00:01:05;25.40;57.90
33105;DHT22;19476;51.448;6.674;2023-08-20T00:03:32;25.40;57.40
33105;DHT22;19476;51.448;6.674;2023-08-20T00:05:58;25.40;57.40
33105;DHT22;19476;51.448;6.674;2023-08-20T00:08:24;25.40;57.40
33105;DHT22;19476;51.448;6.674;2023-08-20T00:10:50;25.40;57.40
33105;DHT22;19476;51.448;6.674;2023-08-20T00:13:15;25.40;57.50
33105;DHT22;19476;51.448;6.674;2023-08-20T00:15:41;25.40;57.50
33105;DHT22;19476;51.448;6.674;2023-08-20T00:18:07;25.40;57.60
33105;DHT22;19476;51.448;6.674;2023-08-20T00:20:34;25.40;57.60
33105;DHT22;19476;51.448;6.674;2023-08-20T00:23:00;25.30;57.60
33105;DHT22;19476;51.448;6.674;2023-08-20T00:25:26;25.30;57.60
33105;DHT22;19476;51.448;6.674;2023-08-20T00:27:51;25.30;57.70
33105;DHT22;19476;51.448;6.674;2023-08-20T00:30:17;25.30;57.70
33105;DHT22;19476;51.448;6.674;2023-08-20T00:32:43;25.30;57.70
33105;DHT22;19476;51.448;6.674;2023-08-20T00:35:09;25.30;57.70
33105;DHT22;19476;51.448;6.674;2023-08-20T00:37:35;25.30;57.70
33105;DHT22;19476;51.448;6.674;2023-08-20T00:40:02;25.30;57.70
33105;DHT22;19476;51.448;6.674;2023-08-20T00:42:30;25.20;57.80
33105;DHT22;19476;51.448;6.674;2023-08-20T00:44:56;25.30;57.70
33105;DHT22;19476;51.448;6.674;2023-08-20T00:47:22;25.20;57.70
33105;DHT22;19476;51.448;6.674;2023-08-20T00:49:48;25.20;57.70
33105;DHT22;19476;51.448;6.674;2023-08-20T00:52:16;25.20;57.80
33105;DHT22;19476;51.448;6.674;2023-08-20T00:54:44;25.10;57.80
33105;DHT22;19476;51.448;6.674;2023-08-20T00:57:11;25.20;57.80
33105;DHT22;19476;51.448;6.674;2023-08-20T00:59:37;25.10;57.70
33105;DHT22;19476;51.448;6.674;2023-08-20T01:02:03;25.10;57.70
33105;DHT22;19476;51.448;6.674;2023-08-20T01:04:29;25.10;57.80
33105;DHT22;19476;51.448;6.674;2023-08-20T01:12:13;25.00;57.90
33105;DHT22;19476;51.448;6.674;2023-08-20T01:14:40;25.10;58.00
33105;DHT22;19476;51.448;6.674;2023-08-20T01:17:06;25.00;57.80
33105;DHT22;19476;51.448;6.674;2023-08-20T01:19:32;25.00;57.80
33105;DHT22;19476;51.448;6.674;2023-08-20T01:30:08;24.90;58.40
33105;DHT22;19476;51.448;6.674;2023-08-20T01:32:36;24.90;58.20
33105;DHT22;19476;51.448;6.674;2023-08-20T01:35:02;24.90;58.20
33105;DHT22;19476;51.448;6.674;2023-08-20T01:37:28;24.90;58.20
33105;DHT22;19476;51.448;6.674;2023-08-20T01:39:54;24.80;58.30
33105;DHT22;19476;51.448;6.674;2023-08-20T01:42:20;24.80;58.30
33105;DHT22;19476;51.448;6.674;2023-08-20T01:44:46;24.80;58.30
33105;DHT22;19476;51.448;6.674;2023-08-20T01:47:12;24.80;58.20
33105;DHT22;19476;51.448;6.674;2023-08-20T01:49:37;24.90;58.40
33105;DHT22;19476;51.448;6.674;2023-08-20T01:52:03;24.80;58.30
33105;DHT22;19476;51.448;6.674;2023-08-20T01:54:29;24.80;58.30
33105;DHT22;19476;51.448;6.674;2023-08-20T01:56:55;24.80;58.40
33105;DHT22;19476;51.448;6.674;2023-08-20T01:59:22;24.80;58.40
33105;DHT22;19476;51.448;6.674;2023-08-20T02:01:49;24.70;59.00
33105;DHT22;19476;51.448;6.674;2023-08-20T02:04:14;24.70;58.50
33105;DHT22;19476;51.448;6.674;2023-08-20T02:06:40;24.70;58.60
33105;DHT22;19476;51.448;6.674;2023-08-20T02:09:06;24.70;58.70
33105;DHT22;19476;51.448;6.674;2023-08-20T02:11:32;24.70;58.70
33105;DHT22;19476;51.448;6.674;2023-08-20T02:14:01;24.70;58.80
33105;DHT22;19476;51.448;6.674;2023-08-20T02:16:27;24.60;59.10
33105;DHT22;19476;51.448;6.674;2023-08-20T02:18:54;24.60;58.90
33105;DHT22;19476;51.448;6.674;2023-08-20T02:21:20;24.60;58.90
33105;DHT22;19476;51.448;6.674;2023-08-20T02:23:45;24.60;59.00
33105;DHT22;19476;51.448;6.674;2023-08-20T02:26:11;24.60;59.10
33105;DHT22;19476;51.448;6.674;2023-08-20T02:28:37;24.60;59.10
33105;DHT22;19476;51.448;6.674;2023-08-20T02:31:04;24.60;59.30
33105;DHT22;19476;51.448;6.674;2023-08-20T02:33:30;24.60;59.40
33105;DHT22;19476;51.448;6.674;2023-08-20T02:36:03;24.50;59.30
33105;DHT22;19476;51.448;6.674;2023-08-20T02:38:30;24.60;59.80
33105;DHT22;19476;51.448;6.674;2023-08-20T02:40:56;24.60;59.50
33105;DHT22;19476;51.448;6.674;2023-08-20T02:43:21;24.60;59.50
33105;DHT22;19476;51.448;6.674;2023-08-20T02:45:47;24.60;59.50
33105;DHT22;19476;51.448;6.674;2023-08-20T02:48:14;24.60;59.50
33105;DHT22;19476;51.448;6.674;2023-08-20T02:50:40;24.60;59.50
33105;DHT22;19476;51.448;6.674;2023-08-20T02:53:06;24.70;59.50
33105;DHT22;19476;51.448;6.674;2023-08-20T02:55:33;24.70;59.50
33105;DHT22;19476;51.448;6.674;2023-08-20T02:57:59;24.60;59.40
33105;DHT22;19476;51.448;6.674;2023-08-20T03:00:25;24.70;59.20
33105;DHT22;19476;51.448;6.674;2023-08-20T03:02:51;24.70;59.20
33105;DHT22;19476;51.448;6.674;2023-08-20T03:05:17;24.60;59.10
33105;DHT22;19476;51.448;6.674;2023-08-20T03:07:43;24.60;59.10
33105;DHT22;19476;51.448;6.674;2023-08-20T03:10:09;24.60;59.10
33105;DHT22;19476;51.448;6.674;2023-08-20T03:12:34;24.60;59.20
33105;DHT22;19476;51.448;6.674;2023-08-20T03:15:00;24.60;59.20
33105;DHT22;19476;51.448;6.674;2023-08-20T03:17:26;24.50;59.20
33105;DHT22;19476;51.448;6.674;2023-08-20T03:19:59;24.50;59.30
33105;DHT22;19476;51.448;6.674;2023-08-20T03:22:26;24.50;59.70
33105;DHT22;19476;51.448;6.674;2023-08-20T03:24:53;24.50;59.50
33105;DHT22;19476;51.448;6.674;2023-08-20T03:27:19;24.50;59.50
33105;DHT22;19476;51.448;6.674;2023-08-20T03:29:45;24.50;59.50
33105;DHT22;19476;51.448;6.674;2023-08-20T03:32:11;24.50;59.50
33105;DHT22;19476;51.448;6.674;2023-08-20T03:34:37;24.50;59.50
33105;DHT22;19476;51.448;6.674;2023-08-20T03:37:04;24.50;59.50
33105;DHT22;19476;51.448;6.674;2023-08-20T03:39:30;24.50;59.60
33105;DHT22;19476;51.448;6.674;2023-08-20T03:41:57;24.50;59.60
33105;DHT22;19476;51.448;6.674;2023-08-20T03:44:23;24.50;59.60
33105;DHT22;19476;51.448;6.674;2023-08-20T03:46:49;24.50;59.50
33105;DHT22;19476;51.448;6.674;2023-08-20T03:49:14;24.60;59.60
33105;DHT22;19476;51.448;6.674;2023-08-20T03:51:40;24.50;59.50
33105;DHT22;19476;51.448;6.674;2023-08-20T03:54:08;24.50;59.40
33105;DHT22;19476;51.448;6.674;2023-08-20T03:56:34;24.50;59.40
33105;DHT22;19476;51.448;6.674;2023-08-20T03:59:00;24.50;59.40
33105;DHT22;19476;51.448;6.674;2023-08-20T04:01:26;24.50;59.50
33105;DHT22;19476;51.448;6.674;2023-08-20T04:03:52;24.50;59.50
33105;DHT22;19476;51.448;6.674;2023-08-20T04:06:18;24.40;59.50
33105;DHT22;19476;51.448;6.674;2023-08-20T04:08:43;24.50;59.60
33105;DHT22;19476;51.448;6.674;2023-08-20T04:11:09;24.40;59.40
33105;DHT22;19476;51.448;6.674;2023-08-20T04:13:35;24.40;59.40
33105;DHT22;19476;51.448;6.674;2023-08-20T04:16:01;24.40;59.50
33105;DHT22;19476;51.448;6.674;2023-08-20T04:18:26;24.40;59.60
33105;DHT22;19476;51.448;6.674;2023-08-20T04:20:53;24.40;59.60
33105;DHT22;19476;51.448;6.674;2023-08-20T04:23:21;24.40;59.60
33105;DHT22;19476;51.448;6.674;2023-08-20T04:25:47;24.40;59.70
33105;DHT22;19476;51.448;6.674;2023-08-20T04:28:13;24.40;59.50
33105;DHT22;19476;51.448;6.674;2023-08-20T04:30:39;24.40;59.50
33105;DHT22;19476;51.448;6.674;2023-08-20T04:33:05;24.40;59.60
33105;DHT22;19476;51.448;6.674;2023-08-20T04:35:31;24.40;59.60
33105;DHT22;19476;51.448;6.674;2023-08-20T04:37:57;24.40;59.60
33105;DHT22;19476;51.448;6.674;2023-08-20T04:40:23;24.30;59.60
33105;DHT22;19476;51.448;6.674;2023-08-20T04:42:49;24.40;59.80
33105;DHT22;19476;51.448;6.674;2023-08-20T04:45:15;24.30;59.80
33105;DHT22;19476;51.448;6.674;2023-08-20T04:47:43;24.30;59.90
33105;DHT22;19476;51.448;6.674;2023-08-20T04:50:09;24.30;59.90
33105;DHT22;19476;51.448;6.674;2023-08-20T04:52:35;24.30;60.00
33105;DHT22;19476;51.448;6.674;2023-08-20T04:55:03;24.30;60.00
33105;DHT22;19476;51.448;6.674;2023-08-20T04:57:29;24.30;60.10
33105;DHT22;19476;51.448;6.674;2023-08-20T04:59:55;24.30;60.00
33105;DHT22;19476;51.448;6.674;2023-08-20T05:02:21;24.30;60.00
33105;DHT22;19476;51.448;6.674;2023-08-20T05:04:46;24.30;60.00
33105;DHT22;19476;51.448;6.674;2023-08-20T05:07:12;24.30;60.10
33105;DHT22;19476;51.448;6.674;2023-08-20T05:09:38;24.30;60.20
33105;DHT22;19476;51.448;6.674;2023-08-20T05:12:04;24.30;60.20
33105;DHT22;19476;51.448;6.674;2023-08-20T05:14:30;24.20;60.20
33105;DHT22;19476;51.448;6.674;2023-08-20T05:16:56;24.30;60.30
33105;DHT22;19476;51.448;6.674;2023-08-20T05:19:22;24.30;60.30
33105;DHT22;19476;51.448;6.674;2023-08-20T05:21:48;24.30;60.30
33105;DHT22;19476;51.448;6.674;2023-08-20T05:24:14;24.30;60.30
33105;DHT22;19476;51.448;6.674;2023-08-20T05:26:40;24.30;60.40
33105;DHT22;19476;51.448;6.674;2023-08-20T05:29:05;24.30;60.40
33105;DHT22;19476;51.448;6.674;2023-08-20T05:31:31;24.30;60.50
33105;DHT22;19476;51.448;6.674;2023-08-20T05:33:58;24.30;60.60
33105;DHT22;19476;51.448;6.674;2023-08-20T05:36:24;24.40;60.60
33105;DHT22;19476;51.448;6.674;2023-08-20T05:38:49;24.40;60.60
33105;DHT22;19476;51.448;6.674;2023-08-20T05:41:15;24.40;60.60
33105;DHT22;19476;51.448;6.674;2023-08-20T05:43:41;24.40;60.70
33105;DHT22;19476;51.448;6.674;2023-08-20T05:46:07;24.40;60.70
33105;DHT22;19476;51.448;6.674;2023-08-20T05:48:33;24.40;60.80
33105;DHT22;19476;51.448;6.674;2023-08-20T05:50:58;24.50;60.80
33105;DHT22;19476;51.448;6.674;2023-08-20T05:53:24;24.50;60.70
33105;DHT22;19476;51.448;6.674;2023-08-20T05:55:50;24.50;60.80
33105;DHT22;19476;51.448;6.674;2023-08-20T05:58:16;24.50;60.80
33105;DHT22;19476;51.448;6.674;2023-08-20T06:00:42;24.50;60.90
33105;DHT22;19476;51.448;6.674;2023-08-20T06:03:08;24.50;60.90
33105;DHT22;19476;51.448;6.674;2023-08-20T06:05:34;24.60;61.00
33105;DHT22;19476;51.448;6.674;2023-08-20T06:08:00;24.60;61.10
33105;DHT22;19476;51.448;6.674;2023-08-20T06:10:26;24.70;61.10
33105;DHT22;19476;51.448;6.674;2023-08-20T06:12:52;24.70;61.10
33105;DHT22;19476;51.448;6.674;2023-08-20T06:15:18;24.70;61.20
33105;DHT22;19476;51.448;6.674;2023-08-20T06:17:44;24.80;61.10
33105;DHT22;19476;51.448;6.674;2023-08-20T06:20:10;24.80;61.20
33105;DHT22;19476;51.448;6.674;2023-08-20T06:22:37;24.80;61.30
33105;DHT22;19476;51.448;6.674;2023-08-20T06:25:04;24.90;61.30
33105;DHT22;19476;51.448;6.674;2023-08-20T06:27:30;24.90;61.30
33105;DHT22;19476;51.448;6.674;2023-08-20T06:29:56;25.00;61.30
33105;DHT22;19476;51.448;6.674;2023-08-20T06:32:26;25.00;61.30
33105;DHT22;19476;51.448;6.674;2023-08-20T06:34:51;25.10;61.30
33105;DHT22;19476;51.448;6.674;2023-08-20T06:37:17;25.10;61.10
33105;DHT22;19476;51.448;6.674;2023-08-20T06:39:43;25.20;61.10
33105;DHT22;19476;51.448;6.674;2023-08-20T06:42:09;25.20;61.10
33105;DHT22;19476;51.448;6.674;2023-08-20T06:44:34;25.30;61.10
33105;DHT22;19476;51.448;6.674;2023-08-20T06:47:01;25.30;61.10
33105;DHT22;19476;51.448;6.674;2023-08-20T06:49:27;25.30;61.20
33105;DHT22;19476;51.448;6.674;2023-08-20T06:51:52;25.40;61.20
33105;DHT22;19476;51.448;6.674;2023-08-20T06:54:18;25.50;61.30
33105;DHT22;19476;51.448;6.674;2023-08-20T06:56:44;25.50;61.20
33105;DHT22;19476;51.448;6.674;2023-08-20T06:59:10;25.60;61.30
33105;DHT22;19476;51.448;6.674;2023-08-20T07:01:36;25.70;61.30
33105;DHT22;19476;51.448;6.674;2023-08-20T07:04:01;25.70;61.20
33105;DHT22;19476;51.448;6.674;2023-08-20T07:06:28;25.80;61.10
33105;DHT22;19476;51.448;6.674;2023-08-20T07:08:54;25.80;61.00
33105;DHT22;19476;51.448;6.674;2023-08-20T07:11:20;25.90;60.90
33105;DHT22;19476;51.448;6.674;2023-08-20T07:13:45;25.90;60.90
33105;DHT22;19476;51.448;6.674;2023-08-20T07:16:11;26.00;60.90
33105;DHT22;19476;51.448;6.674;2023-08-20T07:18:37;26.10;60.90
33105;DHT22;19476;51.448;6.674;2023-08-20T07:21:03;26.40;61.10
33105;DHT22;19476;51.448;6.674;2023-08-20T07:23:29;26.10;60.90
33105;DHT22;19476;51.448;6.674;2023-08-20T07:26:09;26.20;60.90
33105;DHT22;19476;51.448;6.674;2023-08-20T07:28:35;26.30;61.00
33105;DHT22;19476;51.448;6.674;2023-08-20T07:31:20;26.30;60.90
33105;DHT22;19476;51.448;6.674;2023-08-20T07:33:47;26.40;60.70
33105;DHT22;19476;51.448;6.674;2023-08-20T07:36:16;26.40;60.70
33105;DHT22;19476;51.448;6.674;2023-08-20T07:38:43;26.50;60.70
33105;DHT22;19476;51.448;6.674;2023-08-20T07:41:10;26.50;60.60
33105;DHT22;19476;51.448;6.674;2023-08-20T07:43:38;26.60;60.70
33105;DHT22;19476;51.448;6.674;2023-08-20T07:46:05;26.70;60.70
33105;DHT22;19476;51.448;6.674;2023-08-20T07:48:31;26.70;60.70
33105;DHT22;19476;51.448;6.674;2023-08-20T07:50:57;26.80;60.60
33105;DHT22;19476;51.448;6.674;2023-08-20T07:53:23;26.80;60.50
33105;DHT22;19476;51.448;6.674;2023-08-20T07:55:49;26.90;60.40
33105;DHT22;19476;51.448;6.674;2023-08-20T07:58:14;26.90;60.40
33105;DHT22;19476;51.448;6.674;2023-08-20T08:00:40;27.00;60.30
33105;DHT22;19476;51.448;6.674;2023-08-20T08:03:06;27.00;60.30
33105;DHT22;19476;51.448;6.674;2023-08-20T08:05:33;27.10;60.10
33105;DHT22;19476;51.448;6.674;2023-08-20T08:07:58;27.10;60.00
33105;DHT22;19476;51.448;6.674;2023-08-20T08:10:24;27.10;60.00
33105;DHT22;19476;51.448;6.674;2023-08-20T08:12:50;27.20;59.80
33105;DHT22;19476;51.448;6.674;2023-08-20T08:15:16;27.30;59.60
33105;DHT22;19476;51.448;6.674;2023-08-20T08:17:44;27.30;59.50
33105;DHT22;19476;51.448;6.674;2023-08-20T08:20:10;27.40;59.40
33105;DHT22;19476;51.448;6.674;2023-08-20T08:22:36;27.40;59.20
33105;DHT22;19476;51.448;6.674;2023-08-20T08:25:01;27.50;59.20
33105;DHT22;19476;51.448;6.674;2023-08-20T08:27:27;27.50;58.90
33105;DHT22;19476;51.448;6.674;2023-08-20T08:29:53;27.60;58.60
33105;DHT22;19476;51.448;6.674;2023-08-20T08:32:19;27.60;58.40
33105;DHT22;19476;51.448;6.674;2023-08-20T08:34:45;27.70;58.30
33105;DHT22;19476;51.448;6.674;2023-08-20T08:37:10;27.70;58.20
33105;DHT22;19476;51.448;6.674;2023-08-20T08:39:37;27.80;58.00
33105;DHT22;19476;51.448;6.674;2023-08-20T08:42:04;27.90;57.90
33105;DHT22;19476;51.448;6.674;2023-08-20T08:44:33;28.00;57.80
33105;DHT22;19476;51.448;6.674;2023-08-20T08:47:01;28.00;57.60
33105;DHT22;19476;51.448;6.674;2023-08-20T08:49:27;28.10;57.50
33105;DHT22;19476;51.448;6.674;2023-08-20T08:51:56;28.20;56.90
33105;DHT22;19476;51.448;6.674;2023-08-20T08:54:23;28.20;56.70
33105;DHT22;19476;51.448;6.674;2023-08-20T08:56:50;28.30;56.70
33105;DHT22;19476;51.448;6.674;2023-08-20T08:59:22;28.30;56.50
33105;DHT22;19476;51.448;6.674;2023-08-20T09:01:48;28.40;56.30
33105;DHT22;19476;51.448;6.674;2023-08-20T09:04:15;28.40;56.50
33105;DHT22;19476;51.448;6.674;2023-08-20T09:06:55;28.40;56.40
33105;DHT22;19476;51.448;6.674;2023-08-20T09:09:21;28.50;55.70
33105;DHT22;19476;51.448;6.674;2023-08-20T09:11:51;28.50;56.00
33105;DHT22;19476;51.448;6.674;2023-08-20T09:14:24;28.60;55.90
33105;DHT22;19476;51.448;6.674;2023-08-20T09:17:02;28.60;56.10
33105;DHT22;19476;51.448;6.674;2023-08-20T09:19:35;28.60;55.70
33105;DHT22;19476;51.448;6.674;2023-08-20T09:22:05;28.60;55.30
33105;DHT22;19476;51.448;6.674;2023-08-20T09:24:51;28.60;55.30
33105;DHT22;19476;51.448;6.674;2023-08-20T09:27:18;28.70;54.60
33105;DHT22;19476;51.448;6.674;2023-08-20T09:29:49;28.60;54.90
33105;DHT22;19476;51.448;6.674;2023-08-20T09:32:19;28.60;54.60
33105;DHT22;19476;51.448;6.674;2023-08-20T09:34:46;28.60;54.40
33105;DHT22;19476;51.448;6.674;2023-08-20T09:37:14;28.60;54.70
33105;DHT22;19476;51.448;6.674;2023-08-20T09:39:41;28.70;54.80
33105;DHT22;19476;51.448;6.674;2023-08-20T09:42:08;28.70;54.70
33105;DHT22;19476;51.448;6.674;2023-08-20T09:44:35;28.80;54.50
33105;DHT22;19476;51.448;6.674;2023-08-20T09:47:15;28.90;54.20
33105;DHT22;19476;51.448;6.674;2023-08-20T09:49:49;28.90;53.70
33105;DHT22;19476;51.448;6.674;2023-08-20T09:52:44;29.00;53.70
33105;DHT22;19476;51.448;6.674;2023-08-20T09:55:17;29.00;53.40
33105;DHT22;19476;51.448;6.674;2023-08-20T09:57:47;29.00;53.10
33105;DHT22;19476;51.448;6.674;2023-08-20T10:00:13;29.00;53.30
33105;DHT22;19476;51.448;6.674;2023-08-20T10:02:41;29.10;53.50
33105;DHT22;19476;51.448;6.674;2023-08-20T10:05:08;29.10;53.20
33105;DHT22;19476;51.448;6.674;2023-08-20T10:07:42;29.10;53.00
33105;DHT22;19476;51.448;6.674;2023-08-20T10:10:09;29.20;53.20
33105;DHT22;19476;51.448;6.674;2023-08-20T10:12:37;29.20;52.90
33105;DHT22;19476;51.448;6.674;2023-08-20T10:15:11;29.20;52.70
33105;DHT22;19476;51.448;6.674;2023-08-20T10:17:39;29.20;52.30
33105;DHT22;19476;51.448;6.674;2023-08-20T10:20:07;29.30;52.50
33105;DHT22;19476;51.448;6.674;2023-08-20T10:22:40;29.40;52.60
33105;DHT22;19476;51.448;6.674;2023-08-20T10:25:09;29.40;52.10
33105;DHT22;19476;51.448;6.674;2023-08-20T10:27:37;29.50;52.30
33105;DHT22;19476;51.448;6.674;2023-08-20T10:30:16;29.60;52.20
33105;DHT22;19476;51.448;6.674;2023-08-20T10:32:57;29.70;51.50
33105;DHT22;19476;51.448;6.674;2023-08-20T10:35:47;29.80;51.50
33105;DHT22;19476;51.448;6.674;2023-08-20T10:38:14;29.80;51.20
33105;DHT22;19476;51.448;6.674;2023-08-20T10:40:48;29.80;51.20
33105;DHT22;19476;51.448;6.674;2023-08-20T10:43:30;29.90;50.80
33105;DHT22;19476;51.448;6.674;2023-08-20T10:48:42;30.00;50.20
33105;DHT22;19476;51.448;6.674;2023-08-20T10:53:35;30.10;50.10
33105;DHT22;19476;51.448;6.674;2023-08-20T10:56:09;30.10;50.00
33105;DHT22;19476;51.448;6.674;2023-08-20T10:58:36;30.20;49.50
33105;DHT22;19476;51.448;6.674;2023-08-20T11:01:17;30.20;49.90
33105;DHT22;19476;51.448;6.674;2023-08-20T11:03:48;30.30;49.00
33105;DHT22;19476;51.448;6.674;2023-08-20T11:06:16;30.30;49.50
33105;DHT22;19476;51.448;6.674;2023-08-20T11:08:42;30.30;49.50
33105;DHT22;19476;51.448;6.674;2023-08-20T11:11:08;30.50;49.60
33105;DHT22;19476;51.448;6.674;2023-08-20T11:13:35;30.50;48.70
33105;DHT22;19476;51.448;6.674;2023-08-20T11:16:05;30.50;48.80
33105;DHT22;19476;51.448;6.674;2023-08-20T11:18:34;30.50;47.90
33105;DHT22;19476;51.448;6.674;2023-08-20T11:21:01;30.50;48.60
33105;DHT22;19476;51.448;6.674;2023-08-20T11:23:28;30.50;48.10
33105;DHT22;19476;51.448;6.674;2023-08-20T11:25:53;30.60;48.10
33105;DHT22;19476;51.448;6.674;2023-08-20T11:28:20;30.70;48.30
33105;DHT22;19476;51.448;6.674;2023-08-20T11:30:46;30.70;48.40
33105;DHT22;19476;51.448;6.674;2023-08-20T11:33:12;30.70;47.60
33105;DHT22;19476;51.448;6.674;2023-08-20T11:35:38;30.80;47.10
33105;DHT22;19476;51.448;6.674;2023-08-20T11:38:04;30.80;46.90
33105;DHT22;19476;51.448;6.674;2023-08-20T11:40:30;30.90;47.20
33105;DHT22;19476;51.448;6.674;2023-08-20T11:42:56;30.90;47.40
33105;DHT22;19476;51.448;6.674;2023-08-20T11:45:22;30.90;47.10
33105;DHT22;19476;51.448;6.674;2023-08-20T11:47:47;31.00;46.80
33105;DHT22;19476;51.448;6.674;2023-08-20T11:50:13;31.00;46.80
33105;DHT22;19476;51.448;6.674;2023-08-20T11:52:39;31.00;46.70
33105;DHT22;19476;51.448;6.674;2023-08-20T11:55:06;31.00;46.80
33105;DHT22;19476;51.448;6.674;2023-08-20T11:57:32;31.10;46.90
33105;DHT22;19476;51.448;6.674;2023-08-20T12:00:05;31.10;47.00
33105;DHT22;19476;51.448;6.674;2023-08-20T12:02:34;31.20;46.30
33105;DHT22;19476;51.448;6.674;2023-08-20T12:05:00;31.30;46.70
33105;DHT22;19476;51.448;6.674;2023-08-20T12:07:27;31.30;46.20
33105;DHT22;19476;51.448;6.674;2023-08-20T12:09:56;31.40;46.00
33105;DHT22;19476;51.448;6.674;2023-08-20T12:12:22;31.50;45.70
33105;DHT22;19476;51.448;6.674;2023-08-20T12:14:48;31.40;45.60
33105;DHT22;19476;51.448;6.674;2023-08-20T12:17:18;31.40;45.50
33105;DHT22;19476;51.448;6.674;2023-08-20T12:19:45;31.50;44.60
33105;DHT22;19476;51.448;6.674;2023-08-20T12:22:11;31.50;45.30
33105;DHT22;19476;51.448;6.674;2023-08-20T12:24:37;31.50;45.10
33105;DHT22;19476;51.448;6.674;2023-08-20T12:27:04;31.60;44.60
33105;DHT22;19476;51.448;6.674;2023-08-20T12:29:30;31.70;44.40
33105;DHT22;19476;51.448;6.674;2023-08-20T12:31:55;31.70;44.10
33105;DHT22;19476;51.448;6.674;2023-08-20T12:34:21;31.70;43.60
33105;DHT22;19476;51.448;6.674;2023-08-20T12:36:48;31.90;43.90
33105;DHT22;19476;51.448;6.674;2023-08-20T12:39:14;31.90;43.20
33105;DHT22;19476;51.448;6.674;2023-08-20T12:41:40;32.10;43.60
33105;DHT22;19476;51.448;6.674;2023-08-20T12:44:06;32.20;43.00
33105;DHT22;19476;51.448;6.674;2023-08-20T12:46:32;32.40;42.60
33105;DHT22;19476;51.448;6.674;2023-08-20T12:48:57;32.50;42.20
33105;DHT22;19476;51.448;6.674;2023-08-20T12:51:23;32.70;42.10
33105;DHT22;19476;51.448;6.674;2023-08-20T12:53:49;32.80;41.70
33105;DHT22;19476;51.448;6.674;2023-08-20T12:56:15;33.00;41.10
33105;DHT22;19476;51.448;6.674;2023-08-20T12:58:41;33.20;40.90
33105;DHT22;19476;51.448;6.674;2023-08-20T13:01:07;33.30;40.70
33105;DHT22;19476;51.448;6.674;2023-08-20T13:03:34;33.40;40.20
33105;DHT22;19476;51.448;6.674;2023-08-20T13:05:59;33.50;40.00
33105;DHT22;19476;51.448;6.674;2023-08-20T13:08:26;33.60;39.90
33105;DHT22;19476;51.448;6.674;2023-08-20T13:10:56;33.60;39.40
33105;DHT22;19476;51.448;6.674;2023-08-20T13:13:23;33.70;38.80
33105;DHT22;19476;51.448;6.674;2023-08-20T13:15:51;33.70;39.10
33105;DHT22;19476;51.448;6.674;2023-08-20T13:18:17;33.70;39.00
33105;DHT22;19476;51.448;6.674;2023-08-20T13:20:44;33.60;39.20
33105;DHT22;19476;51.448;6.674;2023-08-20T13:23:10;33.60;39.30
33105;DHT22;19476;51.448;6.674;2023-08-20T13:25:36;33.60;39.40
33105;DHT22;19476;51.448;6.674;2023-08-20T13:28:02;33.70;39.30
33105;DHT22;19476;51.448;6.674;2023-08-20T13:30:28;33.70;38.90
33105;DHT22;19476;51.448;6.674;2023-08-20T13:32:55;33.80;38.90
33105;DHT22;19476;51.448;6.674;2023-08-20T13:35:21;33.90;38.60
33105;DHT22;19476;51.448;6.674;2023-08-20T13:37:48;33.90;38.50
33105;DHT22;19476;51.448;6.674;2023-08-20T13:40:14;34.10;38.30
33105;DHT22;19476;51.448;6.674;2023-08-20T13:42:39;34.20;38.30
33105;DHT22;19476;51.448;6.674;2023-08-20T13:45:06;34.30;38.40
33105;DHT22;19476;51.448;6.674;2023-08-20T13:47:32;34.50;38.20
33105;DHT22;19476;51.448;6.674;2023-08-20T13:49:57;34.60;37.70
33105;DHT22;19476;51.448;6.674;2023-08-20T13:52:23;34.70;37.40
33105;DHT22;19476;51.448;6.674;2023-08-20T13:54:49;34.90;37.30
33105;DHT22;19476;51.448;6.674;2023-08-20T13:57:15;34.90;37.20
33105;DHT22;19476;51.448;6.674;2023-08-20T13:59:41;35.00;37.10
33105;DHT22;19476;51.448;6.674;2023-08-20T14:02:06;35.10;37.00
33105;DHT22;19476;51.448;6.674;2023-08-20T14:04:33;35.30;36.70
33105;DHT22;19476;51.448;6.674;2023-08-20T14:06:58;35.40;36.20
33105;DHT22;19476;51.448;6.674;2023-08-20T14:09:25;35.40;35.80
33105;DHT22;19476;51.448;6.674;2023-08-20T14:11:51;35.40;35.50
33105;DHT22;19476;51.448;6.674;2023-08-20T14:14:16;35.30;35.70
33105;DHT22;19476;51.448;6.674;2023-08-20T14:16:42;35.40;35.70
33105;DHT22;19476;51.448;6.674;2023-08-20T14:19:08;35.50;36.00
33105;DHT22;19476;51.448;6.674;2023-08-20T14:21:34;35.50;35.90
33105;DHT22;19476;51.448;6.674;2023-08-20T14:24:00;35.50;35.60
33105;DHT22;19476;51.448;6.674;2023-08-20T14:26:25;35.70;35.60
33105;DHT22;19476;51.448;6.674;2023-08-20T14:28:52;35.80;35.70
33105;DHT22;19476;51.448;6.674;2023-08-20T14:31:18;35.90;35.40
33105;DHT22;19476;51.448;6.674;2023-08-20T14:33:44;36.00;35.40
33105;DHT22;19476;51.448;6.674;2023-08-20T14:36:10;36.10;35.10
33105;DHT22;19476;51.448;6.674;2023-08-20T14:38:36;36.20;35.10
33105;DHT22;19476;51.448;6.674;2023-08-20T14:41:03;36.40;34.90
33105;DHT22;19476;51.448;6.674;2023-08-20T14:43:29;36.60;34.80
33105;DHT22;19476;51.448;6.674;2023-08-20T14:45:56;36.70;34.70
33105;DHT22;19476;51.448;6.674;2023-08-20T14:48:22;37.00;34.50
33105;DHT22;19476;51.448;6.674;2023-08-20T14:50:49;37.10;34.20
33105;DHT22;19476;51.448;6.674;2023-08-20T14:53:15;37.30;33.80
33105;DHT22;19476;51.448;6.674;2023-08-20T14:55:41;37.40;33.80
33105;DHT22;19476;51.448;6.674;2023-08-20T14:58:07;37.50;33.60
33105;DHT22;19476;51.448;6.674;2023-08-20T15:00:33;37.60;33.40
33105;DHT22;19476;51.448;6.674;2023-08-20T15:02:59;37.70;32.90
33105;DHT22;19476;51.448;6.674;2023-08-20T15:05:25;37.80;32.70
33105;DHT22;19476;51.448;6.674;2023-08-20T15:07:51;38.00;32.80
33105;DHT22;19476;51.448;6.674;2023-08-20T15:10:16;38.10;32.50
33105;DHT22;19476;51.448;6.674;2023-08-20T15:12:42;38.20;32.20
33105;DHT22;19476;51.448;6.674;2023-08-20T15:15:08;38.30;32.00
33105;DHT22;19476;51.448;6.674;2023-08-20T15:17:34;38.40;31.60
33105;DHT22;19476;51.448;6.674;2023-08-20T15:20:01;38.50;31.50
33105;DHT22;19476;51.448;6.674;2023-08-20T15:22:27;38.50;31.40
33105;DHT22;19476;51.448;6.674;2023-08-20T15:24:54;38.50;31.30
33105;DHT22;19476;51.448;6.674;2023-08-20T15:27:23;38.60;31.40
33105;DHT22;19476;51.448;6.674;2023-08-20T15:29:50;38.60;30.80
33105;DHT22;19476;51.448;6.674;2023-08-20T15:32:16;38.70;31.00
33105;DHT22;19476;51.448;6.674;2023-08-20T15:34:42;38.80;31.10
33105;DHT22;19476;51.448;6.674;2023-08-20T15:37:08;38.80;30.90
33105;DHT22;19476;51.448;6.674;2023-08-20T15:39:33;39.00;30.80
33105;DHT22;19476;51.448;6.674;2023-08-20T15:42:01;39.00;30.70
33105;DHT22;19476;51.448;6.674;2023-08-20T15:44:27;39.10;30.50
33105;DHT22;19476;51.448;6.674;2023-08-20T15:46:52;39.10;30.50